sensor_id;sensor_type;location;lat;lon;timestamp;P1;durP1;ratioP1;P2;durP2;ratioP2
21822;SDS011;11074;48.596;9.238;2023-04-25T00:01:19;4.72;;;2.80;;
21822;SDS011;11074;48.596;9.238;2023-04-25T00:03:46;6.07;;;2.70;;
21822;SDS011;11074;48.596;9.238;2023-04-25T00:06:13;3.30;;;2.30;;
21822;SDS011;11074;48.596;9.238;2023-04-25T00:08:39;4.63;;;2.55;;
21822;SDS011;11074;48.596;9.238;2023-04-25T00:11:05;5.47;;;2.95;;
21822;SDS011;11074;48.596;9.238;2023-04-25T00:13:31;3.90;;;2.40;;
21822;SDS011;11074;48.596;9.238;2023-04-25T00:15:58;4.75;;;2.80;;
21822;SDS011;11074;48.596;9.238;2023-04-25T00:18:25;5.13;;;2.63;;
21822;SDS011;11074;48.596;9.238;2023-04-25T00:20:53;4.30;;;2.33;;
21822;SDS011;11074;48.596;9.238;2023-04-25T00:23:20;3.60;;;2.55;;
21822;SDS011;11074;48.596;9.238;2023-04-25T00:25:47;3.88;;;2.60;;
21822;SDS011;11074;48.596;9.238;2023-04-25T00:28:14;3.55;;;2.58;;
21822;SDS011;11074;48.596;9.238;2023-04-25T00:30:41;3.22;;;2.47;;
21822;SDS011;11074;48.596;9.238;2023-04-25T00:33:07;4.03;;;2.55;;
21822;SDS011;11074;48.596;9.238;2023-04-25T00:35:34;3.72;;;2.58;;
21822;SDS011;11074;48.596;9.238;2023-04-25T00:38:00;3.40;;;2.33;;
21822;SDS011;11074;48.596;9.238;2023-04-25T00:40:27;3.65;;;2.65;;
21822;SDS011;11074;48.596;9.238;2023-04-25T00:42:53;3.90;;;2.53;;
21822;SDS011;11074;48.596;9.238;2023-04-25T00:45:19;5.07;;;2.60;;
21822;SDS011;11074;48.596;9.238;2023-04-25T00:47:46;4.32;;;2.53;;
21822;SDS011;11074;48.596;9.238;2023-04-25T00:50:15;3.08;;;2.63;;
21822;SDS011;11074;48.596;9.238;2023-04-25T00:52:42;3.45;;;2.63;;
21822;SDS011;11074;48.596;9.238;2023-04-25T00:55:10;4.05;;;2.92;;
21822;SDS011;11074;48.596;9.238;2023-04-25T00:57:37;6.05;;;3.08;;
21822;SDS011;11074;48.596;9.238;2023-04-25T01:00:07;4.18;;;2.95;;
21822;SDS011;11074;48.596;9.238;2023-04-25T01:02:35;3.83;;;2.92;;
21822;SDS011;11074;48.596;9.238;2023-04-25T01:05:02;3.70;;;2.83;;
21822;SDS011;11074;48.596;9.238;2023-04-25T01:07:29;6.30;;;2.85;;
21822;SDS011;11074;48.596;9.238;2023-04-25T01:09:55;4.22;;;2.95;;
21822;SDS011;11074;48.596;9.238;2023-04-25T01:12:21;3.92;;;2.70;;
21822;SDS011;11074;48.596;9.238;2023-04-25T01:14:48;3.47;;;2.70;;
21822;SDS011;11074;48.596;9.238;2023-04-25T01:17:14;5.53;;;2.83;;
21822;SDS011;11074;48.596;9.238;2023-04-25T01:19:41;3.40;;;2.70;;
21822;SDS011;11074;48.596;9.238;2023-04-25T01:22:07;4.35;;;2.95;;
21822;SDS011;11074;48.596;9.238;2023-04-25T01:24:35;3.97;;;2.72;;
21822;SDS011;11074;48.596;9.238;2023-04-25T01:27:01;4.18;;;2.60;;
21822;SDS011;11074;48.596;9.238;2023-04-25T01:29:30;5.90;;;2.80;;
21822;SDS011;11074;48.596;9.238;2023-04-25T01:31:57;4.10;;;2.50;;
21822;SDS011;11074;48.596;9.238;2023-04-25T01:34:24;3.60;;;2.90;;
21822;SDS011;11074;48.596;9.238;2023-04-25T01:36:50;3.72;;;2.47;;
21822;SDS011;11074;48.596;9.238;2023-04-25T01:39:16;5.75;;;2.88;;
21822;SDS011;11074;48.596;9.238;2023-04-25T01:41:43;3.85;;;2.95;;
21822;SDS011;11074;48.596;9.238;2023-04-25T01:44:10;4.07;;;2.50;;
21822;SDS011;11074;48.596;9.238;2023-04-25T01:46:36;3.42;;;2.50;;
21822;SDS011;11074;48.596;9.238;2023-04-25T01:49:02;3.75;;;2.42;;
21822;SDS011;11074;48.596;9.238;2023-04-25T01:51:28;4.22;;;2.85;;
21822;SDS011;11074;48.596;9.238;2023-04-25T01:53:53;4.82;;;2.70;;
21822;SDS011;11074;48.596;9.238;2023-04-25T01:56:21;5.05;;;3.17;;
21822;SDS011;11074;48.596;9.238;2023-04-25T01:58:46;4.40;;;2.78;;
21822;SDS011;11074;48.596;9.238;2023-04-25T02:01:12;3.60;;;2.67;;
21822;SDS011;11074;48.596;9.238;2023-04-25T02:03:38;4.22;;;3.08;;
21822;SDS011;11074;48.596;9.238;2023-04-25T02:06:04;4.72;;;2.85;;
21822;SDS011;11074;48.596;9.238;2023-04-25T02:08:30;5.20;;;2.67;;
21822;SDS011;11074;48.596;9.238;2023-04-25T02:10:56;2.92;;;2.30;;
21822;SDS011;11074;48.596;9.238;2023-04-25T02:13:22;3.53;;;2.25;;
21822;SDS011;11074;48.596;9.238;2023-04-25T02:15:48;3.40;;;2.53;;
21822;SDS011;11074;48.596;9.238;2023-04-25T02:18:13;4.20;;;2.72;;
21822;SDS011;11074;48.596;9.238;2023-04-25T02:20:41;4.07;;;2.53;;
21822;SDS011;11074;48.596;9.238;2023-04-25T02:23:08;4.50;;;2.78;;
21822;SDS011;11074;48.596;9.238;2023-04-25T02:25:33;4.03;;;2.60;;
21822;SDS011;11074;48.596;9.238;2023-04-25T02:27:59;6.32;;;2.70;;
21822;SDS011;11074;48.596;9.238;2023-04-25T02:30:25;4.95;;;2.80;;
21822;SDS011;11074;48.596;9.238;2023-04-25T02:32:50;5.93;;;2.63;;
21822;SDS011;11074;48.596;9.238;2023-04-25T02:35:16;4.82;;;2.95;;
21822;SDS011;11074;48.596;9.238;2023-04-25T02:37:42;5.95;;;2.88;;
21822;SDS011;11074;48.596;9.238;2023-04-25T02:40:08;4.80;;;2.70;;
21822;SDS011;11074;48.596;9.238;2023-04-25T02:42:34;4.22;;;2.95;;
21822;SDS011;11074;48.596;9.238;2023-04-25T02:45:00;4.53;;;2.78;;
21822;SDS011;11074;48.596;9.238;2023-04-25T02:47:27;4.10;;;2.72;;
21822;SDS011;11074;48.596;9.238;2023-04-25T02:49:52;4.78;;;3.15;;
21822;SDS011;11074;48.596;9.238;2023-04-25T02:52:18;3.78;;;2.40;;
21822;SDS011;11074;48.596;9.238;2023-04-25T02:54:44;3.97;;;2.40;;
21822;SDS011;11074;48.596;9.238;2023-04-25T02:57:09;6.10;;;2.95;;
21822;SDS011;11074;48.596;9.238;2023-04-25T02:59:35;3.35;;;2.50;;
21822;SDS011;11074;48.596;9.238;2023-04-25T03:02:01;5.63;;;2.60;;
21822;SDS011;11074;48.596;9.238;2023-04-25T03:04:27;5.47;;;2.70;;
21822;SDS011;11074;48.596;9.238;2023-04-25T03:06:53;3.97;;;2.70;;
21822;SDS011;11074;48.596;9.238;2023-04-25T03:09:18;5.20;;;2.65;;
21822;SDS011;11074;48.596;9.238;2023-04-25T03:11:45;3.83;;;2.40;;
21822;SDS011;11074;48.596;9.238;2023-04-25T03:14:11;3.42;;;2.40;;
21822;SDS011;11074;48.596;9.238;2023-04-25T03:16:37;5.13;;;2.38;;
21822;SDS011;11074;48.596;9.238;2023-04-25T03:19:04;3.42;;;2.40;;
21822;SDS011;11074;48.596;9.238;2023-04-25T03:21:30;5.43;;;2.78;;
21822;SDS011;11074;48.596;9.238;2023-04-25T03:23:58;6.65;;;3.00;;
21822;SDS011;11074;48.596;9.238;2023-04-25T03:26:27;4.45;;;2.63;;
21822;SDS011;11074;48.596;9.238;2023-04-25T03:28:53;4.38;;;2.90;;
21822;SDS011;11074;48.596;9.238;2023-04-25T03:31:19;4.10;;;2.63;;
21822;SDS011;11074;48.596;9.238;2023-04-25T03:33:45;4.78;;;2.80;;
21822;SDS011;11074;48.596;9.238;2023-04-25T03:36:11;6.70;;;3.10;;
21822;SDS011;11074;48.596;9.238;2023-04-25T03:38:36;4.82;;;2.67;;
21822;SDS011;11074;48.596;9.238;2023-04-25T03:41:02;4.43;;;2.38;;
21822;SDS011;11074;48.596;9.238;2023-04-25T03:43:28;4.75;;;2.85;;
21822;SDS011;11074;48.596;9.238;2023-04-25T03:45:54;4.65;;;2.70;;
21822;SDS011;11074;48.596;9.238;2023-04-25T03:48:19;5.93;;;2.80;;
21822;SDS011;11074;48.596;9.238;2023-04-25T03:50:49;6.22;;;2.72;;
21822;SDS011;11074;48.596;9.238;2023-04-25T03:53:15;3.78;;;2.60;;
21822;SDS011;11074;48.596;9.238;2023-04-25T03:55:41;6.03;;;2.80;;
21822;SDS011;11074;48.596;9.238;2023-04-25T03:58:07;5.07;;;2.70;;
21822;SDS011;11074;48.596;9.238;2023-04-25T04:00:33;4.57;;;2.80;;
21822;SDS011;11074;48.596;9.238;2023-04-25T04:03:02;3.75;;;2.55;;
21822;SDS011;11074;48.596;9.238;2023-04-25T04:05:28;5.50;;;2.90;;
21822;SDS011;11074;48.596;9.238;2023-04-25T04:07:54;3.70;;;1.98;;
21822;SDS011;11074;48.596;9.238;2023-04-25T04:10:20;5.75;;;2.60;;
21822;SDS011;11074;48.596;9.238;2023-04-25T04:12:46;4.18;;;2.20;;
21822;SDS011;11074;48.596;9.238;2023-04-25T04:15:12;3.60;;;2.20;;
21822;SDS011;11074;48.596;9.238;2023-04-25T04:17:41;4.95;;;2.70;;
21822;SDS011;11074;48.596;9.238;2023-04-25T04:20:06;5.40;;;2.60;;
21822;SDS011;11074;48.596;9.238;2023-04-25T04:22:33;6.07;;;3.00;;
21822;SDS011;11074;48.596;9.238;2023-04-25T04:24:59;4.10;;;2.70;;
21822;SDS011;11074;48.596;9.238;2023-04-25T04:27:25;5.63;;;2.85;;
21822;SDS011;11074;48.596;9.238;2023-04-25T04:29:54;3.90;;;2.63;;
21822;SDS011;11074;48.596;9.238;2023-04-25T04:32:21;6.78;;;3.22;;
21822;SDS011;11074;48.596;9.238;2023-04-25T04:34:48;4.60;;;2.92;;
21822;SDS011;11074;48.596;9.238;2023-04-25T04:37:14;5.55;;;2.95;;
21822;SDS011;11074;48.596;9.238;2023-04-25T04:39:40;4.30;;;3.05;;
21822;SDS011;11074;48.596;9.238;2023-04-25T04:42:05;7.97;;;3.63;;
21822;SDS011;11074;48.596;9.238;2023-04-25T04:44:31;6.25;;;3.13;;
21822;SDS011;11074;48.596;9.238;2023-04-25T04:46:58;4.45;;;3.22;;
21822;SDS011;11074;48.596;9.238;2023-04-25T04:49:24;4.97;;;2.80;;
21822;SDS011;11074;48.596;9.238;2023-04-25T04:51:50;4.25;;;2.92;;
21822;SDS011;11074;48.596;9.238;2023-04-25T04:54:16;5.38;;;3.00;;
21822;SDS011;11074;48.596;9.238;2023-04-25T04:56:41;5.50;;;2.60;;
21822;SDS011;11074;48.596;9.238;2023-04-25T04:59:07;5.75;;;2.55;;
21822;SDS011;11074;48.596;9.238;2023-04-25T05:01:33;5.85;;;3.03;;
21822;SDS011;11074;48.596;9.238;2023-04-25T05:04:02;4.65;;;2.92;;
21822;SDS011;11074;48.596;9.238;2023-04-25T05:06:29;4.00;;;2.78;;
21822;SDS011;11074;48.596;9.238;2023-04-25T05:08:56;5.40;;;2.90;;
21822;SDS011;11074;48.596;9.238;2023-04-25T05:11:23;3.40;;;2.65;;
21822;SDS011;11074;48.596;9.238;2023-04-25T05:13:51;7.78;;;3.03;;
21822;SDS011;11074;48.596;9.238;2023-04-25T05:16:18;4.30;;;2.55;;
21822;SDS011;11074;48.596;9.238;2023-04-25T05:18:45;4.15;;;2.50;;
21822;SDS011;11074;48.596;9.238;2023-04-25T05:21:11;7.53;;;3.75;;
21822;SDS011;11074;48.596;9.238;2023-04-25T05:23:37;12.93;;;7.70;;
21822;SDS011;11074;48.596;9.238;2023-04-25T05:26:03;10.02;;;6.00;;
21822;SDS011;11074;48.596;9.238;2023-04-25T05:28:29;7.97;;;5.40;;
21822;SDS011;11074;48.596;9.238;2023-04-25T05:30:55;13.60;;;9.20;;
21822;SDS011;11074;48.596;9.238;2023-04-25T05:33:21;14.77;;;9.00;;
21822;SDS011;11074;48.596;9.238;2023-04-25T05:35:46;11.13;;;7.28;;
21822;SDS011;11074;48.596;9.238;2023-04-25T05:38:12;10.25;;;7.25;;
21822;SDS011;11074;48.596;9.238;2023-04-25T05:40:38;7.32;;;5.20;;
21822;SDS011;11074;48.596;9.238;2023-04-25T05:43:03;7.50;;;4.60;;
21822;SDS011;11074;48.596;9.238;2023-04-25T05:45:29;5.57;;;4.05;;
21822;SDS011;11074;48.596;9.238;2023-04-25T05:47:55;5.45;;;3.35;;
21822;SDS011;11074;48.596;9.238;2023-04-25T05:50:20;6.72;;;3.95;;
21822;SDS011;11074;48.596;9.238;2023-04-25T05:52:46;6.53;;;3.72;;
21822;SDS011;11074;48.596;9.238;2023-04-25T05:55:12;5.22;;;3.33;;
21822;SDS011;11074;48.596;9.238;2023-04-25T05:57:38;5.57;;;2.88;;
21822;SDS011;11074;48.596;9.238;2023-04-25T06:00:07;4.28;;;2.70;;
21822;SDS011;11074;48.596;9.238;2023-04-25T06:02:34;7.93;;;3.45;;
21822;SDS011;11074;48.596;9.238;2023-04-25T06:05:00;4.07;;;2.67;;
21822;SDS011;11074;48.596;9.238;2023-04-25T06:07:28;4.70;;;2.97;;
21822;SDS011;11074;48.596;9.238;2023-04-25T06:09:55;6.20;;;2.97;;
21822;SDS011;11074;48.596;9.238;2023-04-25T06:12:20;7.53;;;2.95;;
21822;SDS011;11074;48.596;9.238;2023-04-25T06:14:46;6.25;;;2.72;;
21822;SDS011;11074;48.596;9.238;2023-04-25T06:17:12;4.82;;;3.00;;
21822;SDS011;11074;48.596;9.238;2023-04-25T06:19:38;5.80;;;3.03;;
21822;SDS011;11074;48.596;9.238;2023-04-25T06:22:03;3.97;;;2.42;;
21822;SDS011;11074;48.596;9.238;2023-04-25T06:24:29;6.13;;;2.85;;
21822;SDS011;11074;48.596;9.238;2023-04-25T06:26:55;5.22;;;2.90;;
21822;SDS011;11074;48.596;9.238;2023-04-25T06:29:21;5.07;;;2.85;;
21822;SDS011;11074;48.596;9.238;2023-04-25T06:31:46;4.78;;;3.00;;
21822;SDS011;11074;48.596;9.238;2023-04-25T06:34:12;6.57;;;3.00;;
21822;SDS011;11074;48.596;9.238;2023-04-25T06:36:38;6.57;;;3.50;;
21822;SDS011;11074;48.596;9.238;2023-04-25T06:39:03;5.40;;;3.13;;
21822;SDS011;11074;48.596;9.238;2023-04-25T06:41:29;5.90;;;3.72;;
21822;SDS011;11074;48.596;9.238;2023-04-25T06:43:55;5.05;;;2.85;;
21822;SDS011;11074;48.596;9.238;2023-04-25T06:46:21;4.55;;;3.00;;
21822;SDS011;11074;48.596;9.238;2023-04-25T06:48:46;5.28;;;2.72;;
21822;SDS011;11074;48.596;9.238;2023-04-25T06:51:12;3.95;;;2.72;;
21822;SDS011;11074;48.596;9.238;2023-04-25T06:53:40;7.07;;;3.22;;
21822;SDS011;11074;48.596;9.238;2023-04-25T06:56:06;5.90;;;3.22;;
21822;SDS011;11074;48.596;9.238;2023-04-25T06:58:31;4.05;;;2.53;;
21822;SDS011;11074;48.596;9.238;2023-04-25T07:00:57;6.10;;;2.25;;
21822;SDS011;11074;48.596;9.238;2023-04-25T07:03:23;3.58;;;2.42;;
21822;SDS011;11074;48.596;9.238;2023-04-25T07:05:49;6.18;;;2.40;;
21822;SDS011;11074;48.596;9.238;2023-04-25T07:08:15;5.88;;;2.58;;
21822;SDS011;11074;48.596;9.238;2023-04-25T07:10:41;4.75;;;2.40;;
21822;SDS011;11074;48.596;9.238;2023-04-25T07:13:07;4.05;;;2.20;;
21822;SDS011;11074;48.596;9.238;2023-04-25T07:15:33;4.45;;;2.70;;
21822;SDS011;11074;48.596;9.238;2023-04-25T07:17:59;4.22;;;2.08;;
21822;SDS011;11074;48.596;9.238;2023-04-25T07:20:25;4.85;;;2.88;;
21822;SDS011;11074;48.596;9.238;2023-04-25T07:22:52;4.72;;;2.42;;
21822;SDS011;11074;48.596;9.238;2023-04-25T07:25:18;6.40;;;2.40;;
21822;SDS011;11074;48.596;9.238;2023-04-25T07:27:44;4.35;;;2.38;;
21822;SDS011;11074;48.596;9.238;2023-04-25T07:30:10;4.50;;;2.35;;
21822;SDS011;11074;48.596;9.238;2023-04-25T07:32:37;5.18;;;2.10;;
21822;SDS011;11074;48.596;9.238;2023-04-25T07:35:03;4.90;;;2.30;;
21822;SDS011;11074;48.596;9.238;2023-04-25T07:37:30;5.70;;;2.17;;
21822;SDS011;11074;48.596;9.238;2023-04-25T07:39:55;6.78;;;2.50;;
21822;SDS011;11074;48.596;9.238;2023-04-25T07:42:21;5.00;;;3.40;;
21822;SDS011;11074;48.596;9.238;2023-04-25T07:44:46;7.20;;;3.97;;
21822;SDS011;11074;48.596;9.238;2023-04-25T07:47:12;4.57;;;2.72;;
21822;SDS011;11074;48.596;9.238;2023-04-25T07:49:38;5.20;;;2.65;;
21822;SDS011;11074;48.596;9.238;2023-04-25T07:52:05;4.55;;;2.78;;
21822;SDS011;11074;48.596;9.238;2023-04-25T07:54:31;4.28;;;2.50;;
21822;SDS011;11074;48.596;9.238;2023-04-25T07:56:57;22.83;;;16.88;;
21822;SDS011;11074;48.596;9.238;2023-04-25T07:59:23;15.10;;;10.48;;
21822;SDS011;11074;48.596;9.238;2023-04-25T08:01:49;9.68;;;5.00;;
21822;SDS011;11074;48.596;9.238;2023-04-25T08:04:17;9.40;;;4.60;;
21822;SDS011;11074;48.596;9.238;2023-04-25T08:06:42;7.53;;;4.22;;
21822;SDS011;11074;48.596;9.238;2023-04-25T08:09:08;8.77;;;4.05;;
21822;SDS011;11074;48.596;9.238;2023-04-25T08:11:35;4.70;;;3.22;;
21822;SDS011;11074;48.596;9.238;2023-04-25T08:14:01;4.80;;;2.85;;
21822;SDS011;11074;48.596;9.238;2023-04-25T08:16:27;5.38;;;3.22;;
21822;SDS011;11074;48.596;9.238;2023-04-25T08:18:53;5.43;;;3.15;;
21822;SDS011;11074;48.596;9.238;2023-04-25T08:21:19;4.60;;;3.03;;
21822;SDS011;11074;48.596;9.238;2023-04-25T08:23:46;4.70;;;2.95;;
21822;SDS011;11074;48.596;9.238;2023-04-25T08:26:11;5.38;;;3.15;;
21822;SDS011;11074;48.596;9.238;2023-04-25T08:28:37;4.47;;;3.35;;
21822;SDS011;11074;48.596;9.238;2023-04-25T08:31:03;4.50;;;2.90;;
21822;SDS011;11074;48.596;9.238;2023-04-25T08:33:29;6.60;;;4.40;;
21822;SDS011;11074;48.596;9.238;2023-04-25T08:35:55;5.30;;;3.63;;
21822;SDS011;11074;48.596;9.238;2023-04-25T08:38:21;4.70;;;3.53;;
21822;SDS011;11074;48.596;9.238;2023-04-25T08:40:48;5.47;;;3.30;;
21822;SDS011;11074;48.596;9.238;2023-04-25T08:43:17;5.85;;;3.42;;
21822;SDS011;11074;48.596;9.238;2023-04-25T08:45:45;5.60;;;3.47;;
21822;SDS011;11074;48.596;9.238;2023-04-25T08:48:12;4.30;;;3.60;;
21822;SDS011;11074;48.596;9.238;2023-04-25T08:50:43;5.55;;;3.45;;
21822;SDS011;11074;48.596;9.238;2023-04-25T08:53:28;4.15;;;3.15;;
21822;SDS011;11074;48.596;9.238;2023-04-25T08:55:58;5.40;;;3.47;;
21822;SDS011;11074;48.596;9.238;2023-04-25T08:58:28;6.70;;;3.80;;
21822;SDS011;11074;48.596;9.238;2023-04-25T09:00:55;3.65;;;3.05;;
21822;SDS011;11074;48.596;9.238;2023-04-25T09:03:21;4.32;;;3.45;;
21822;SDS011;11074;48.596;9.238;2023-04-25T09:05:46;4.78;;;3.20;;
21822;SDS011;11074;48.596;9.238;2023-04-25T09:08:12;5.95;;;3.58;;
21822;SDS011;11074;48.596;9.238;2023-04-25T09:10:38;4.70;;;3.47;;
21822;SDS011;11074;48.596;9.238;2023-04-25T09:13:11;4.82;;;3.67;;
21822;SDS011;11074;48.596;9.238;2023-04-25T09:15:47;6.57;;;4.00;;
21822;SDS011;11074;48.596;9.238;2023-04-25T09:18:21;5.72;;;4.15;;
21822;SDS011;11074;48.596;9.238;2023-04-25T09:21:06;4.80;;;3.83;;
21822;SDS011;11074;48.596;9.238;2023-04-25T09:23:40;5.05;;;3.72;;
21822;SDS011;11074;48.596;9.238;2023-04-25T09:26:15;6.57;;;3.55;;
21822;SDS011;11074;48.596;9.238;2023-04-25T09:28:43;5.75;;;3.90;;
21822;SDS011;11074;48.596;9.238;2023-04-25T09:31:10;5.15;;;3.88;;
21822;SDS011;11074;48.596;9.238;2023-04-25T09:33:36;5.47;;;4.20;;
21822;SDS011;11074;48.596;9.238;2023-04-25T09:36:03;5.60;;;3.83;;
21822;SDS011;11074;48.596;9.238;2023-04-25T09:38:42;4.93;;;3.58;;
21822;SDS011;11074;48.596;9.238;2023-04-25T09:41:10;5.20;;;3.88;;
21822;SDS011;11074;48.596;9.238;2023-04-25T09:43:37;5.40;;;4.35;;
21822;SDS011;11074;48.596;9.238;2023-04-25T09:46:08;6.20;;;4.60;;
21822;SDS011;11074;48.596;9.238;2023-04-25T09:48:36;6.78;;;4.45;;
21822;SDS011;11074;48.596;9.238;2023-04-25T09:53:39;6.70;;;4.60;;
21822;SDS011;11074;48.596;9.238;2023-04-25T09:56:11;6.07;;;4.30;;
21822;SDS011;11074;48.596;9.238;2023-04-25T09:58:38;5.85;;;4.28;;
21822;SDS011;11074;48.596;9.238;2023-04-25T10:01:06;6.55;;;3.80;;
21822;SDS011;11074;48.596;9.238;2023-04-25T10:03:34;4.55;;;3.55;;
21822;SDS011;11074;48.596;9.238;2023-04-25T10:06:08;4.30;;;3.40;;
21822;SDS011;11074;48.596;9.238;2023-04-25T10:08:41;4.57;;;3.00;;
21822;SDS011;11074;48.596;9.238;2023-04-25T10:11:09;3.38;;;2.65;;
21822;SDS011;11074;48.596;9.238;2023-04-25T10:13:35;3.17;;;2.55;;
21822;SDS011;11074;48.596;9.238;2023-04-25T10:16:02;3.97;;;2.80;;
21822;SDS011;11074;48.596;9.238;2023-04-25T10:18:30;8.07;;;4.53;;
21822;SDS011;11074;48.596;9.238;2023-04-25T10:21:04;18.00;;;9.88;;
21822;SDS011;11074;48.596;9.238;2023-04-25T10:23:32;13.52;;;7.57;;
21822;SDS011;11074;48.596;9.238;2023-04-25T10:26:01;6.78;;;4.30;;
21822;SDS011;11074;48.596;9.238;2023-04-25T10:28:27;5.55;;;3.47;;
21822;SDS011;11074;48.596;9.238;2023-04-25T10:31:03;6.18;;;3.53;;
21822;SDS011;11074;48.596;9.238;2023-04-25T10:33:36;9.65;;;4.18;;
21822;SDS011;11074;48.596;9.238;2023-04-25T10:36:12;6.30;;;3.78;;
21822;SDS011;11074;48.596;9.238;2023-04-25T10:38:42;5.32;;;2.80;;
21822;SDS011;11074;48.596;9.238;2023-04-25T10:41:10;3.05;;;2.20;;
21822;SDS011;11074;48.596;9.238;2023-04-25T10:43:41;2.80;;;2.03;;
21822;SDS011;11074;48.596;9.238;2023-04-25T10:46:22;3.05;;;2.03;;
21822;SDS011;11074;48.596;9.238;2023-04-25T10:48:57;1.85;;;1.30;;
21822;SDS011;11074;48.596;9.238;2023-04-25T10:51:26;3.47;;;1.08;;
21822;SDS011;11074;48.596;9.238;2023-04-25T10:56:24;1.85;;;0.95;;
21822;SDS011;11074;48.596;9.238;2023-04-25T11:01:45;1.60;;;0.93;;
21822;SDS011;11074;48.596;9.238;2023-04-25T11:04:24;1.02;;;0.60;;
21822;SDS011;11074;48.596;9.238;2023-04-25T11:07:05;0.70;;;0.60;;
21822;SDS011;11074;48.596;9.238;2023-04-25T11:09:51;1.88;;;1.20;;
21822;SDS011;11074;48.596;9.238;2023-04-25T11:12:17;2.17;;;1.25;;
21822;SDS011;11074;48.596;9.238;2023-04-25T11:14:42;2.72;;;1.40;;
21822;SDS011;11074;48.596;9.238;2023-04-25T11:17:08;2.45;;;1.20;;
21822;SDS011;11074;48.596;9.238;2023-04-25T11:19:35;1.13;;;0.75;;
21822;SDS011;11074;48.596;9.238;2023-04-25T11:22:02;1.38;;;0.90;;
21822;SDS011;11074;48.596;9.238;2023-04-25T11:24:32;0.98;;;0.50;;
21822;SDS011;11074;48.596;9.238;2023-04-25T11:27:00;1.27;;;0.60;;
21822;SDS011;11074;48.596;9.238;2023-04-25T11:29:28;0.85;;;0.60;;
21822;SDS011;11074;48.596;9.238;2023-04-25T11:31:56;1.13;;;0.60;;
21822;SDS011;11074;48.596;9.238;2023-04-25T11:34:26;0.65;;;0.43;;
21822;SDS011;11074;48.596;9.238;2023-04-25T11:36:55;0.77;;;0.50;;
21822;SDS011;11074;48.596;9.238;2023-04-25T11:39:21;2.53;;;0.60;;
21822;SDS011;11074;48.596;9.238;2023-04-25T11:41:49;1.30;;;0.70;;
21822;SDS011;11074;48.596;9.238;2023-04-25T11:44:16;0.75;;;0.70;;
21822;SDS011;11074;48.596;9.238;2023-04-25T11:46:43;0.85;;;0.60;;
21822;SDS011;11074;48.596;9.238;2023-04-25T11:49:09;1.05;;;0.70;;
21822;SDS011;11074;48.596;9.238;2023-04-25T11:51:39;1.85;;;1.05;;
21822;SDS011;11074;48.596;9.238;2023-04-25T11:54:10;1.90;;;0.90;;
21822;SDS011;11074;48.596;9.238;2023-04-25T11:56:37;2.72;;;1.10;;
21822;SDS011;11074;48.596;9.238;2023-04-25T11:59:07;1.20;;;0.70;;
21822;SDS011;11074;48.596;9.238;2023-04-25T12:01:33;0.80;;;0.77;;
21822;SDS011;11074;48.596;9.238;2023-04-25T12:04:13;0.82;;;0.70;;
21822;SDS011;11074;48.596;9.238;2023-04-25T12:06:39;1.65;;;0.80;;
21822;SDS011;11074;48.596;9.238;2023-04-25T12:09:08;0.77;;;0.50;;
21822;SDS011;11074;48.596;9.238;2023-04-25T12:11:42;0.90;;;0.60;;
21822;SDS011;11074;48.596;9.238;2023-04-25T12:14:10;1.45;;;0.70;;
21822;SDS011;11074;48.596;9.238;2023-04-25T12:16:40;1.10;;;0.70;;
21822;SDS011;11074;48.596;9.238;2023-04-25T12:19:07;1.48;;;0.85;;
21822;SDS011;11074;48.596;9.238;2023-04-25T12:21:33;2.58;;;0.90;;
21822;SDS011;11074;48.596;9.238;2023-04-25T12:24:12;1.58;;;0.75;;
21822;SDS011;11074;48.596;9.238;2023-04-25T12:26:48;1.38;;;0.52;;
21822;SDS011;11074;48.596;9.238;2023-04-25T12:29:32;1.58;;;0.70;;
21822;SDS011;11074;48.596;9.238;2023-04-25T12:31:59;0.60;;;0.60;;
21822;SDS011;11074;48.596;9.238;2023-04-25T12:34:26;1.42;;;0.90;;
21822;SDS011;11074;48.596;9.238;2023-04-25T12:36:53;0.80;;;0.50;;
21822;SDS011;11074;48.596;9.238;2023-04-25T12:39:20;1.60;;;1.02;;
21822;SDS011;11074;48.596;9.238;2023-04-25T12:41:48;1.38;;;0.63;;
21822;SDS011;11074;48.596;9.238;2023-04-25T12:44:15;0.80;;;0.70;;
21822;SDS011;11074;48.596;9.238;2023-04-25T12:46:42;1.42;;;0.60;;
21822;SDS011;11074;48.596;9.238;2023-04-25T12:49:08;1.40;;;0.88;;
21822;SDS011;11074;48.596;9.238;2023-04-25T12:51:34;1.77;;;1.00;;
21822;SDS011;11074;48.596;9.238;2023-04-25T12:54:01;0.95;;;0.70;;
21822;SDS011;11074;48.596;9.238;2023-04-25T12:56:29;1.40;;;0.90;;
21822;SDS011;11074;48.596;9.238;2023-04-25T12:58:56;3.15;;;1.90;;
21822;SDS011;11074;48.596;9.238;2023-04-25T13:01:22;4.45;;;1.70;;
21822;SDS011;11074;48.596;9.238;2023-04-25T13:03:48;1.23;;;1.05;;
21822;SDS011;11074;48.596;9.238;2023-04-25T13:06:14;1.80;;;1.27;;
21822;SDS011;11074;48.596;9.238;2023-04-25T13:08:42;2.20;;;1.40;;
21822;SDS011;11074;48.596;9.238;2023-04-25T13:11:07;2.30;;;1.40;;
21822;SDS011;11074;48.596;9.238;2023-04-25T13:13:33;3.65;;;1.40;;
21822;SDS011;11074;48.596;9.238;2023-04-25T13:16:03;3.33;;;2.08;;
21822;SDS011;11074;48.596;9.238;2023-04-25T13:18:30;4.45;;;2.30;;
21822;SDS011;11074;48.596;9.238;2023-04-25T13:20:56;18.40;;;6.72;;
21822;SDS011;11074;48.596;9.238;2023-04-25T13:23:24;9.95;;;4.47;;
21822;SDS011;11074;48.596;9.238;2023-04-25T13:25:54;11.18;;;5.47;;
21822;SDS011;11074;48.596;9.238;2023-04-25T13:28:22;7.93;;;3.22;;
21822;SDS011;11074;48.596;9.238;2023-04-25T13:30:50;3.95;;;2.20;;
21822;SDS011;11074;48.596;9.238;2023-04-25T13:33:16;3.28;;;1.90;;
21822;SDS011;11074;48.596;9.238;2023-04-25T13:35:43;2.58;;;1.70;;
21822;SDS011;11074;48.596;9.238;2023-04-25T13:38:18;2.53;;;1.77;;
21822;SDS011;11074;48.596;9.238;2023-04-25T13:40:46;1.92;;;1.50;;
21822;SDS011;11074;48.596;9.238;2023-04-25T13:43:12;2.67;;;1.83;;
21822;SDS011;11074;48.596;9.238;2023-04-25T13:45:38;3.20;;;2.13;;
21822;SDS011;11074;48.596;9.238;2023-04-25T13:48:04;3.75;;;2.90;;
21822;SDS011;11074;48.596;9.238;2023-04-25T13:50:30;4.90;;;3.30;;
21822;SDS011;11074;48.596;9.238;2023-04-25T13:52:56;5.03;;;2.95;;
21822;SDS011;11074;48.596;9.238;2023-04-25T13:55:22;3.60;;;2.00;;
21822;SDS011;11074;48.596;9.238;2023-04-25T13:57:48;3.50;;;2.10;;
21822;SDS011;11074;48.596;9.238;2023-04-25T14:00:13;2.72;;;2.08;;
21822;SDS011;11074;48.596;9.238;2023-04-25T14:02:40;2.50;;;1.90;;
21822;SDS011;11074;48.596;9.238;2023-04-25T14:05:06;3.60;;;2.00;;
21822;SDS011;11074;48.596;9.238;2023-04-25T14:07:36;2.70;;;1.60;;
21822;SDS011;11074;48.596;9.238;2023-04-25T14:10:02;2.38;;;1.80;;
21822;SDS011;11074;48.596;9.238;2023-04-25T14:12:30;3.47;;;2.17;;
21822;SDS011;11074;48.596;9.238;2023-04-25T14:14:57;2.58;;;1.88;;
21822;SDS011;11074;48.596;9.238;2023-04-25T14:17:22;3.33;;;2.28;;
21822;SDS011;11074;48.596;9.238;2023-04-25T14:19:49;4.07;;;2.30;;
21822;SDS011;11074;48.596;9.238;2023-04-25T14:22:15;3.10;;;2.22;;
21822;SDS011;11074;48.596;9.238;2023-04-25T14:24:41;2.75;;;2.15;;
21822;SDS011;11074;48.596;9.238;2023-04-25T14:27:07;3.55;;;2.10;;
21822;SDS011;11074;48.596;9.238;2023-04-25T14:29:32;2.95;;;1.95;;
21822;SDS011;11074;48.596;9.238;2023-04-25T14:31:58;3.33;;;1.92;;
21822;SDS011;11074;48.596;9.238;2023-04-25T14:34:24;2.78;;;2.15;;
21822;SDS011;11074;48.596;9.238;2023-04-25T14:36:51;5.20;;;2.17;;
21822;SDS011;11074;48.596;9.238;2023-04-25T14:39:17;3.08;;;2.50;;
21822;SDS011;11074;48.596;9.238;2023-04-25T14:41:43;3.53;;;2.40;;
21822;SDS011;11074;48.596;9.238;2023-04-25T14:44:10;3.17;;;2.00;;
21822;SDS011;11074;48.596;9.238;2023-04-25T14:46:36;4.05;;;2.22;;
21822;SDS011;11074;48.596;9.238;2023-04-25T14:49:02;2.83;;;2.35;;
21822;SDS011;11074;48.596;9.238;2023-04-25T14:51:28;2.80;;;2.13;;
21822;SDS011;11074;48.596;9.238;2023-04-25T14:53:56;3.38;;;2.28;;
21822;SDS011;11074;48.596;9.238;2023-04-25T14:56:21;4.30;;;2.45;;